Time;durP1;ratioP1;P1;durP2;ratioP2;P2;SDS_P1;SDS_P2;PMS_P1;PMS_P2;Temp;Humidity;BMP_temperature;BMP_pressure;BME280_temperature;BME280_humidity;BME280_pressure;Samples;Min_cycle;Max_cycle;Signal;HPM_P1;HPM_P2
2022/05/16 00:00:39;;;;;;;;;;;;;;;;;;1989985;28;19942;-70
2022/05/16 00:01:38;;;;;;;;;;;;;;;;;;1989716;28;19913;-69
2022/05/16 00:02:37;;;;;;;;;;;;;;;;;;1989926;28;20350;-70
2022/05/16 00:03:36;;;;;;;;;;;;;;;;;;1989816;28;20358;-69
2022/05/16 00:04:35;;;;;;;;;;;;;;;;;;1988725;28;19958;-69
2022/05/16 00:05:34;;;;;;;;;;;;;;;;;;1989211;28;19945;-70
2022/05/16 00:06:33;;;;;;;;;;;;;;;;;;1989723;28;20421;-69
2022/05/16 00:07:31;;;;;;;;;;;;;;;;;;1989815;28;19910;-69
2022/05/16 00:08:31;;;;;;;;;;;;;;;;;;1989791;28;20269;-69
2022/05/16 00:09:29;;;;;;;;;;;;;;;;;;1989818;28;19916;-69
2022/05/16 00:10:28;;;;;;;;;;;;;;;;;;1989753;28;20342;-69
2022/05/16 00:11:27;;;;;;;;;;;;;;;;;;1989694;28;19906;-69
2022/05/16 00:12:26;;;;;;;;;;;;;;;;;;1989697;28;20267;-70
2022/05/16 00:13:25;;;;;;;;;;;;;;;;;;1989709;28;19906;-70
2022/05/16 00:14:24;;;;;;;;;;;;;;;;;;1989810;28;19913;-69
2022/05/16 00:15:24;;;;;;;;;;;;;;;;;;1989840;28;19906;-70
2022/05/16 00:16:23;;;;;;;;;;;;;;;;;;1989579;28;19917;-70
2022/05/16 00:17:22;;;;;;;;;;;;;;;;;;1989778;28;19907;-69
2022/05/16 00:18:21;;;;;;;;;;;;;;;;;;1989718;28;19906;-69
2022/05/16 00:19:19;;;;;;;;;;;;;;;;;;1989071;28;19925;-69
2022/05/16 00:20:18;;;;;;;;;;;;;;;;;;1989861;28;19956;-70
2022/05/16 00:21:17;;;;;;;;;;;;;;;;;;1989840;28;19902;-68
2022/05/16 00:22:16;;;;;;;;;;;;;;;;;;1988993;28;19906;-69
2022/05/16 00:23:15;;;;;;;;;;;;;;;;;;1989346;28;19906;-69
2022/05/16 00:24:14;;;;;;;;;;;;;;;;;;1989581;28;19917;-69
2022/05/16 00:25:12;;;;;;;;;;;;;;;;;;1989686;28;19902;-69
2022/05/16 00:26:11;;;;;;;;;;;;;;;;;;1989747;28;19963;-69
2022/05/16 00:27:10;;;;;;;;;;;;;;;;;;1989654;28;19903;-69
2022/05/16 00:28:09;;;;;;;;;;;;;;;;;;1989652;28;20369;-70
2022/05/16 00:29:08;;;;;;;;;;;;;;;;;;1989841;28;19902;-70
2022/05/16 00:30:07;;;;;;;;;;;;;;;;;;1989669;28;19952;-70
2022/05/16 00:31:06;;;;;;;;;;;;;;;;;;1989696;28;19906;-69
2022/05/16 00:32:05;;;;;;;;;;;;;;;;;;1989806;28;19995;-70
2022/05/16 00:33:04;;;;;;;;;;;;;;;;;;1989883;28;20009;-70
2022/05/16 00:34:03;;;;;;;;;;;;;;;;;;1989645;28;20345;-70
2022/05/16 00:35:01;;;;;;;;;;;;;;;;;;1989697;28;19992;-69
2022/05/16 00:36:00;;;;;;;;;;;;;;;;;;1989469;28;20281;-69
2022/05/16 00:36:59;;;;;;;;;;;;;;;;;;1989546;28;19912;-69
2022/05/16 00:37:58;;;;;;;;;;;;;;;;;;1989518;28;19910;-69
2022/05/16 00:38:57;;;;;;;;;;;;;;;;;;1989612;28;19906;-69
2022/05/16 00:39:56;;;;;;;;;;;;;;;;;;1989581;28;19992;-69
2022/05/16 00:40:54;;;;;;;;;;;;;;;;;;1989712;28;19961;-71
2022/05/16 00:41:54;;;;;;;;;;;;;;;;;;1989673;28;19906;-69
2022/05/16 00:42:58;;;;;;;;;;;;;;;;;;1989670;28;19950;-69
2022/05/16 00:43:58;;;;;;;;;;;;;;;;;;1989603;28;19906;-69
2022/05/16 00:44:57;;;;;;;;;;;;;;;;;;1989747;28;20457;-69
2022/05/16 00:45:56;;;;;;;;;;;;;;;;;;1989532;28;19973;-70
2022/05/16 00:46:54;;;;;;;;;;;;;;;;;;1989637;28;20342;-69
2022/05/16 00:47:53;;;;;;;;;;;;;;;;;;1989421;28;19952;-69
2022/05/16 00:48:52;;;;;;;;;;;;;;;;;;1989487;28;20353;-69
2022/05/16 00:49:51;;;;;;;;;;;;;;;;;;1989544;28;20357;-69
2022/05/16 00:50:50;;;;;;;;;;;;;;;;;;1989555;28;19950;-69
2022/05/16 00:51:49;;;;;;;;;;;;;;;;;;1989465;28;20064;-69
2022/05/16 00:52:48;;;;;;;;;;;;;;;;;;1988791;28;19993;-69
2022/05/16 00:53:46;;;;;;;;;;;;;;;;;;1988813;28;19956;-69
2022/05/16 00:54:45;;;;;;;;;;;;;;;;;;1989450;28;19913;-69
2022/05/16 00:55:44;;;;;;;;;;;;;;;;;;1989353;28;20212;-69
2022/05/16 00:56:43;;;;;;;;;;;;;;;;;;1989643;28;19925;-69
2022/05/16 00:57:42;;;;;;;;;;;;;;;;;;1989455;28;19906;-70
2022/05/16 00:58:41;;;;;;;;;;;;;;;;;;1989500;28;19918;-70
2022/05/16 00:59:40;;;;;;;;;;;;;;;;;;1989738;28;19906;-69
2022/05/16 01:00:39;;;;;;;;;;;;;;;;;;1989413;28;19913;-69
2022/05/16 01:05:31;;;;;;;;;;;;;;;;;;1989457;28;19910;-70
2022/05/16 01:06:30;;;;;;;;;;;;;;;;;;1989452;28;19906;-70
2022/05/16 01:07:29;;;;;;;;;;;;;;;;;;1989590;28;19906;-72
2022/05/16 01:08:28;;;;;;;;;;;;;;;;;;1989534;28;19996;-69
2022/05/16 01:09:27;;;;;;;;;;;;;;;;;;1989518;28;19945;-70
2022/05/16 01:10:26;;;;;;;;;;;;;;;;;;1989557;28;19906;-71
2022/05/16 01:11:25;;;;;;;;;;;;;;;;;;1989617;28;19910;-70
2022/05/16 01:12:24;;;;;;;;;;;;;;;;;;1989274;28;19906;-70
2022/05/16 01:13:22;;;;;;;;;;;;;;;;;;1989464;28;19906;-70
2022/05/16 01:14:21;;;;;;;;;;;;;;;;;;1989465;28;20281;-69
2022/05/16 01:15:20;;;;;;;;;;;;;;;;;;1989373;28;19906;-70
2022/05/16 01:16:22;;;;;;;;;;;;;;;;;;1989281;28;20230;-70
2022/05/16 01:17:20;;;;;;;;;;;;;;;;;;1989382;28;19912;-69
2022/05/16 01:18:19;;;;;;;;;;;;;;;;;;1989419;28;19926;-70
2022/05/16 01:19:18;;;;;;;;;;;;;;;;;;1989279;28;20251;-69
2022/05/16 01:20:17;;;;;;;;;;;;;;;;;;1989486;28;19935;-69
2022/05/16 01:21:16;;;;;;;;;;;;;;;;;;1989578;28;20266;-70
2022/05/16 01:22:15;;;;;;;;;;;;;;;;;;1989427;28;19906;-69
2022/05/16 01:23:13;;;;;;;;;;;;;;;;;;1989450;28;20231;-70
2022/05/16 01:24:12;;;;;;;;;;;;;;;;;;1988996;28;19964;-70
2022/05/16 01:25:11;;;;;;;;;;;;;;;;;;1988643;28;20445;-68
2022/05/16 01:26:10;;;;;;;;;;;;;;;;;;1989377;28;19910;-68
2022/05/16 01:27:09;;;;;;;;;;;;;;;;;;1989241;28;20362;-68
2022/05/16 01:28:07;;;;;;;;;;;;;;;;;;1989467;28;19906;-69
2022/05/16 01:29:06;;;;;;;;;;;;;;;;;;1989383;28;20172;-68
2022/05/16 01:30:05;;;;;;;;;;;;;;;;;;1989372;28;19913;-70
2022/05/16 01:31:04;;;;;;;;;;;;;;;;;;1988619;28;19957;-69
2022/05/16 01:32:03;;;;;;;;;;;;;;;;;;1988160;28;19963;-71
2022/05/16 01:33:02;;;;;;;;;;;;;;;;;;1988723;28;20000;-70
2022/05/16 01:34:01;;;;;;;;;;;;;;;;;;1989294;28;19973;-70
2022/05/16 01:34:59;;;;;;;;;;;;;;;;;;1989333;28;19902;-70
2022/05/16 01:35:58;;;;;;;;;;;;;;;;;;1989218;28;19921;-70
2022/05/16 01:36:57;;;;;;;;;;;;;;;;;;1989329;28;19957;-70
2022/05/16 01:39:14;;;;;;;;;;;;;;;;;;1989337;28;19906;-69
2022/05/16 01:40:13;;;;;;;;;;;;;;;;;;1988712;28;19906;-71
2022/05/16 01:41:11;;;;;;;;;;;;;;;;;;1988660;28;20369;-69
2022/05/16 01:42:10;;;;;;;;;;;;;;;;;;1989222;28;19910;-69
2022/05/16 01:43:10;;;;;;;;;;;;;;;;;;1989256;28;20362;-69
2022/05/16 01:44:09;;;;;;;;;;;;;;;;;;1989291;28;19906;-69
2022/05/16 01:45:08;;;;;;;;;;;;;;;;;;1989305;28;19906;-69
2022/05/16 01:46:07;;;;;;;;;;;;;;;;;;1989226;28;19910;-71
2022/05/16 01:47:06;;;;;;;;;;;;;;;;;;1989141;28;19973;-69
2022/05/16 01:48:04;;;;;;;;;;;;;;;;;;1989258;28;20378;-69
2022/05/16 01:49:03;;;;;;;;;;;;;;;;;;1988598;28;19913;-69
2022/05/16 01:50:02;;;;;;;;;;;;;;;;;;1988880;28;20397;-69
2022/05/16 01:51:01;;;;;;;;;;;;;;;;;;1989293;28;19916;-69
2022/05/16 01:52:00;;;;;;;;;;;;;;;;;;1988674;28;19996;-69
2022/05/16 01:53:00;;;;;;;;;;;;;;;;;;1988621;28;19985;-69
2022/05/16 01:54:01;;;;;;;;;;;;;;;;;;1989090;28;19906;-69
2022/05/16 01:55:00;;;;;;;;;;;;;;;;;;1989151;28;19953;-71
2022/05/16 01:55:59;;;;;;;;;;;;;;;;;;1989166;28;19913;-69
2022/05/16 01:56:57;;;;;;;;;;;;;;;;;;1989165;28;20281;-69
2022/05/16 01:57:56;;;;;;;;;;;;;;;;;;1989269;28;20313;-69
2022/05/16 01:58:55;;;;;;;;;;;;;;;;;;1989320;28;19949;-69
2022/05/16 01:59:54;;;;;;;;;;;;;;;;;;1989274;28;19956;-69
2022/05/16 02:00:53;;;;;;;;;;;;;;;;;;1989170;28;19914;-69
2022/05/16 02:01:52;;;;;;;;;;;;;;;;;;1989258;28;19912;-69
2022/05/16 02:02:50;;;;;;;;;;;;;;;;;;1989316;28;19996;-69
2022/05/16 02:03:49;;;;;;;;;;;;;;;;;;1994469;28;20286;-70
2022/05/16 02:04:48;;;;;;;;;;;;;;;;;;1996502;28;19906;-69
2022/05/16 02:05:47;;;;;;;;;;;;;;;;;;1992966;28;20231;-69
2022/05/16 02:06:46;;;;;;;;;;;;;;;;;;1994507;28;19913;-69
2022/05/16 02:07:45;;;;;;;;;;;;;;;;;;1991020;28;20393;-69
2022/05/16 02:08:44;;;;;;;;;;;;;;;;;;1995637;28;19956;-69
2022/05/16 02:09:42;;;;;;;;;;;;;;;;;;1991433;28;19917;-69
2022/05/16 02:10:41;;;;;;;;;;;;;;;;;;1989680;28;20357;-69
2022/05/16 02:11:41;;;;;;;;;;;;;;;;;;1989380;28;19906;-69
2022/05/16 02:12:40;;;;;;;;;;;;;;;;;;1989492;28;19945;-69
2022/05/16 02:13:38;;;;;;;;;;;;;;;;;;1989801;28;20318;-69
2022/05/16 02:14:37;;;;;;;;;;;;;;;;;;1989513;28;19973;-69
2022/05/16 02:15:36;;;;;;;;;;;;;;;;;;1989344;28;19928;-69
2022/05/16 02:16:35;;;;;;;;;;;;;;;;;;1989256;28;19917;-69
2022/05/16 02:17:34;;;;;;;;;;;;;;;;;;1989289;28;19931;-69
2022/05/16 02:18:33;;;;;;;;;;;;;;;;;;1989100;28;19968;-69
2022/05/16 02:19:31;;;;;;;;;;;;;;;;;;1989109;28;20013;-70
2022/05/16 02:20:30;;;;;;;;;;;;;;;;;;1989301;28;19909;-70
2022/05/16 02:24:47;;;;;;;;;;;;;;;;;;1989258;28;20282;-69
2022/05/16 02:25:27;;;;;;;;;;;;;;;;;;1981348;28;20001;-69
2022/05/16 02:26:26;;;;;;;;;;;;;;;;;;1989012;28;20270;-69
2022/05/16 02:27:25;;;;;;;;;;;;;;;;;;1989154;28;19906;-71
2022/05/16 02:28:24;;;;;;;;;;;;;;;;;;1989208;28;19913;-71
2022/05/16 02:29:22;;;;;;;;;;;;;;;;;;1989050;28;19994;-69
2022/05/16 02:30:22;;;;;;;;;;;;;;;;;;1989129;28;20370;-70
2022/05/16 02:31:21;;;;;;;;;;;;;;;;;;1989313;28;20277;-70
2022/05/16 02:32:20;;;;;;;;;;;;;;;;;;1989279;28;19906;-70
2022/05/16 02:33:19;;;;;;;;;;;;;;;;;;1989309;28;19950;-69
2022/05/16 02:34:18;;;;;;;;;;;;;;;;;;1989285;28;19937;-69
2022/05/16 02:35:16;;;;;;;;;;;;;;;;;;1989116;28;19914;-70
2022/05/16 02:36:15;;;;;;;;;;;;;;;;;;1989183;28;19921;-71
2022/05/16 02:37:14;;;;;;;;;;;;;;;;;;1989004;28;19910;-68
2022/05/16 02:38:13;;;;;;;;;;;;;;;;;;1989198;28;19945;-69
2022/05/16 02:39:12;;;;;;;;;;;;;;;;;;1989171;28;19997;-71
2022/05/16 02:40:11;;;;;;;;;;;;;;;;;;1989245;28;20365;-69
2022/05/16 02:41:09;;;;;;;;;;;;;;;;;;1988966;28;19953;-70
2022/05/16 02:42:08;;;;;;;;;;;;;;;;;;1989027;28;20000;-69
2022/05/16 02:43:07;;;;;;;;;;;;;;;;;;1990394;28;19906;-69
2022/05/16 02:44:06;;;;;;;;;;;;;;;;;;1990624;28;19912;-69
2022/05/16 02:45:05;;;;;;;;;;;;;;;;;;1990531;28;19906;-69
2022/05/16 02:46:04;;;;;;;;;;;;;;;;;;1990444;28;19957;-69
2022/05/16 02:47:05;;;;;;;;;;;;;;;;;;1990418;28;20372;-69
2022/05/16 02:48:04;;;;;;;;;;;;;;;;;;1990441;28;19906;-70
2022/05/16 02:49:03;;;;;;;;;;;;;;;;;;1990553;28;19992;-69
2022/05/16 02:50:02;;;;;;;;;;;;;;;;;;1990460;28;20029;-71
2022/05/16 02:51:00;;;;;;;;;;;;;;;;;;1990622;28;19910;-69
2022/05/16 02:51:59;;;;;;;;;;;;;;;;;;1990399;28;19925;-71
2022/05/16 02:52:58;;;;;;;;;;;;;;;;;;1990419;28;19906;-69
2022/05/16 02:53:57;;;;;;;;;;;;;;;;;;1989668;28;19913;-70
2022/05/16 02:54:56;;;;;;;;;;;;;;;;;;1989812;28;19906;-69
2022/05/16 02:55:55;;;;;;;;;;;;;;;;;;1990275;28;19928;-70
2022/05/16 02:56:54;;;;;;;;;;;;;;;;;;1990275;28;20005;-70
2022/05/16 02:57:53;;;;;;;;;;;;;;;;;;1989649;28;19945;-70
2022/05/16 02:58:51;;;;;;;;;;;;;;;;;;1989763;28;19953;-70
2022/05/16 02:59:50;;;;;;;;;;;;;;;;;;1990392;28;19910;-70
2022/05/16 03:00:49;;;;;;;;;;;;;;;;;;1990348;28;19906;-70
2022/05/16 03:01:48;;;;;;;;;;;;;;;;;;1990348;28;19957;-69
2022/05/16 03:02:47;;;;;;;;;;;;;;;;;;1990318;28;19913;-68
2022/05/16 03:03:47;;;;;;;;;;;;;;;;;;1990410;28;19956;-69
2022/05/16 03:04:46;;;;;;;;;;;;;;;;;;1990178;28;20271;-69
2022/05/16 03:05:45;;;;;;;;;;;;;;;;;;1990371;28;19913;-68
2022/05/16 03:06:44;;;;;;;;;;;;;;;;;;1990260;28;20437;-69
2022/05/16 03:07:43;;;;;;;;;;;;;;;;;;1989657;28;19909;-69
2022/05/16 03:08:41;;;;;;;;;;;;;;;;;;1989772;28;19980;-69
2022/05/16 03:09:40;;;;;;;;;;;;;;;;;;1990341;28;19937;-69
2022/05/16 03:10:39;;;;;;;;;;;;;;;;;;1990261;28;20045;-69
2022/05/16 03:11:38;;;;;;;;;;;;;;;;;;1989615;28;20384;-69
2022/05/16 03:12:37;;;;;;;;;;;;;;;;;;1989725;28;19906;-69
2022/05/16 03:13:36;;;;;;;;;;;;;;;;;;1990220;28;19906;-70
2022/05/16 03:14:35;;;;;;;;;;;;;;;;;;1990344;28;19956;-69
2022/05/16 03:15:34;;;;;;;;;;;;;;;;;;1990345;28;20301;-69
2022/05/16 03:16:34;;;;;;;;;;;;;;;;;;1990132;28;19917;-70
2022/05/16 03:17:33;;;;;;;;;;;;;;;;;;1990223;28;20346;-70
2022/05/16 03:18:31;;;;;;;;;;;;;;;;;;1989455;28;20013;-69
2022/05/16 03:19:30;;;;;;;;;;;;;;;;;;1989595;28;19910;-69
2022/05/16 03:20:29;;;;;;;;;;;;;;;;;;1990265;28;19906;-69
2022/05/16 03:21:29;;;;;;;;;;;;;;;;;;1990136;28;19912;-69
2022/05/16 03:22:28;;;;;;;;;;;;;;;;;;1990107;28;19906;-69
2022/05/16 03:23:27;;;;;;;;;;;;;;;;;;1990385;28;19914;-69
2022/05/16 03:24:26;;;;;;;;;;;;;;;;;;1990404;28;20338;-69
2022/05/16 03:25:25;;;;;;;;;;;;;;;;;;1990394;28;19906;-69
2022/05/16 03:26:24;;;;;;;;;;;;;;;;;;1990137;28;20274;-70
2022/05/16 03:27:23;;;;;;;;;;;;;;;;;;1990167;28;19906;-70
2022/05/16 03:28:22;;;;;;;;;;;;;;;;;;1989993;28;20349;-69
2022/05/16 03:29:21;;;;;;;;;;;;;;;;;;1990072;28;19961;-69
2022/05/16 03:30:20;;;;;;;;;;;;;;;;;;1990106;28;19906;-69
2022/05/16 03:31:19;;;;;;;;;;;;;;;;;;1990213;28;19906;-69
2022/05/16 03:32:17;;;;;;;;;;;;;;;;;;1990113;28;19910;-68
2022/05/16 03:33:16;;;;;;;;;;;;;;;;;;1990204;28;19913;-68
2022/05/16 03:34:15;;;;;;;;;;;;;;;;;;1990046;28;19910;-69
2022/05/16 03:35:14;;;;;;;;;;;;;;;;;;1990128;28;19906;-69
2022/05/16 03:36:13;;;;;;;;;;;;;;;;;;1990255;28;20105;-69
2022/05/16 03:37:13;;;;;;;;;;;;;;;;;;1989887;28;19912;-69
2022/05/16 03:40:41;;;;;;;;;;;;;;;;;;1989995;28;19980;-69
2022/05/16 03:40:50;;;;;;;;;;;;;;;;;;1989791;28;19906;-69
2022/05/16 03:41:48;;;;;;;;;;;;;;;;;;1990062;28;19906;-68
2022/05/16 03:42:47;;;;;;;;;;;;;;;;;;1990024;28;20308;-68
2022/05/16 03:43:46;;;;;;;;;;;;;;;;;;1990033;28;19906;-69
2022/05/16 03:44:45;;;;;;;;;;;;;;;;;;1990069;28;19906;-69
2022/05/16 03:45:44;;;;;;;;;;;;;;;;;;1990158;28;19929;-69
2022/05/16 03:46:43;;;;;;;;;;;;;;;;;;1989948;28;20331;-69
2022/05/16 03:47:42;;;;;;;;;;;;;;;;;;1989914;28;19913;-69
2022/05/16 03:48:41;;;;;;;;;;;;;;;;;;1990027;28;19957;-69
2022/05/16 03:49:40;;;;;;;;;;;;;;;;;;1990123;28;19986;-69
2022/05/16 03:50:39;;;;;;;;;;;;;;;;;;1990100;28;19906;-70
2022/05/16 03:51:38;;;;;;;;;;;;;;;;;;1989409;28;19906;-69
2022/05/16 03:52:38;;;;;;;;;;;;;;;;;;1989210;28;19961;-69
2022/05/16 03:53:43;;;;;;;;;;;;;;;;;;1989681;28;19906;-70
2022/05/16 03:54:41;;;;;;;;;;;;;;;;;;1989459;28;19910;-70
2022/05/16 03:55:40;;;;;;;;;;;;;;;;;;1989980;28;20421;-69
2022/05/16 03:56:39;;;;;;;;;;;;;;;;;;1989886;28;19953;-70
2022/05/16 03:57:38;;;;;;;;;;;;;;;;;;1989964;28;19906;-69
2022/05/16 03:58:37;;;;;;;;;;;;;;;;;;1990116;28;20396;-69
2022/05/16 03:59:36;;;;;;;;;;;;;;;;;;1990104;28;19997;-70
2022/05/16 04:00:35;;;;;;;;;;;;;;;;;;1990105;28;20241;-71
2022/05/16 04:01:33;;;;;;;;;;;;;;;;;;1990011;28;19912;-69
2022/05/16 04:02:32;;;;;;;;;;;;;;;;;;1989882;28;19972;-70
2022/05/16 04:03:31;;;;;;;;;;;;;;;;;;1989929;28;20362;-69
2022/05/16 04:04:30;;;;;;;;;;;;;;;;;;1989998;28;20008;-69
2022/05/16 04:05:29;;;;;;;;;;;;;;;;;;1989684;28;19945;-69
2022/05/16 04:06:28;;;;;;;;;;;;;;;;;;1989831;28;19949;-69
2022/05/16 04:07:27;;;;;;;;;;;;;;;;;;1989984;28;19996;-71
2022/05/16 04:08:26;;;;;;;;;;;;;;;;;;1989949;28;19910;-69
2022/05/16 04:09:25;;;;;;;;;;;;;;;;;;1989423;28;19906;-69
2022/05/16 04:10:24;;;;;;;;;;;;;;;;;;1989401;28;20046;-70
2022/05/16 04:11:23;;;;;;;;;;;;;;;;;;1989824;28;19953;-70
2022/05/16 04:12:22;;;;;;;;;;;;;;;;;;1989935;28;19922;-69
2022/05/16 04:13:21;;;;;;;;;;;;;;;;;;1989840;28;19918;-69
2022/05/16 04:14:20;;;;;;;;;;;;;;;;;;1989797;28;19905;-70
2022/05/16 04:15:21;;;;;;;;;;;;;;;;;;1989870;28;19905;-69
2022/05/16 04:16:19;;;;;;;;;;;;;;;;;;1989618;28;19933;-70
2022/05/16 04:17:19;;;;;;;;;;;;;;;;;;1989484;28;19993;-68
2022/05/16 04:18:17;;;;;;;;;;;;;;;;;;1989649;28;19952;-69
2022/05/16 04:19:16;;;;;;;;;;;;;;;;;;1989516;28;20054;-69
2022/05/16 04:20:16;;;;;;;;;;;;;;;;;;1989010;28;19913;-70
2022/05/16 04:21:15;;;;;;;;;;;;;;;;;;1989065;28;19910;-69
2022/05/16 04:22:14;;;;;;;;;;;;;;;;;;1989581;28;19909;-69
2022/05/16 04:23:13;;;;;;;;;;;;;;;;;;1989772;28;20369;-70
2022/05/16 04:24:12;;;;;;;;;;;;;;;;;;1989831;28;19972;-69
2022/05/16 04:25:10;;;;;;;;;;;;;;;;;;1989246;28;19902;-69
2022/05/16 04:26:09;;;;;;;;;;;;;;;;;;1989238;28;19926;-70
2022/05/16 04:27:08;;;;;;;;;;;;;;;;;;1989648;28;19953;-70
2022/05/16 04:28:07;;;;;;;;;;;;;;;;;;1989862;28;19928;-70
2022/05/16 04:29:07;;;;;;;;;;;;;;;;;;1989487;28;19909;-69
2022/05/16 04:30:06;;;;;;;;;;;;;;;;;;1989700;28;19907;-69
2022/05/16 04:31:05;;;;;;;;;;;;;;;;;;1989619;28;19952;-68
2022/05/16 04:32:04;;;;;;;;;;;;;;;;;;1989721;28;19912;-68
2022/05/16 04:33:02;;;;;;;;;;;;;;;;;;1988991;28;20289;-69
2022/05/16 04:34:08;;;;;;;;;;;;;;;;;;1989104;28;20000;-70
2022/05/16 04:35:07;;;;;;;;;;;;;;;;;;1989691;28;19945;-69
2022/05/16 04:36:05;;;;;;;;;;;;;;;;;;1989599;28;20281;-69
2022/05/16 04:37:04;;;;;;;;;;;;;;;;;;1989739;28;19957;-69
2022/05/16 04:38:03;;;;;;;;;;;;;;;;;;1989597;28;19906;-69
2022/05/16 04:39:02;;;;;;;;;;;;;;;;;;1988955;28;19913;-69
2022/05/16 04:40:01;;;;;;;;;;;;;;;;;;1988984;28;19977;-70
2022/05/16 04:43:36;;;;;;;;;;;;;;;;;;1989580;28;19925;-69
2022/05/16 04:44:38;;;;;;;;;;;;;;;;;;1989523;28;19956;-69
2022/05/16 04:45:37;;;;;;;;;;;;;;;;;;1989522;28;20001;-69
2022/05/16 04:46:36;;;;;;;;;;;;;;;;;;1989697;28;19906;-71
2022/05/16 04:47:35;;;;;;;;;;;;;;;;;;1989696;28;20404;-71
2022/05/16 04:48:34;;;;;;;;;;;;;;;;;;1989682;28;19906;-70
2022/05/16 04:49:33;;;;;;;;;;;;;;;;;;1989575;28;19957;-71
2022/05/16 04:50:32;;;;;;;;;;;;;;;;;;1989947;28;20257;-70
2022/05/16 04:51:30;;;;;;;;;;;;;;;;;;1996429;28;19906;-69
2022/05/16 04:52:29;;;;;;;;;;;;;;;;;;1997755;28;19906;-70
2022/05/16 04:53:28;;;;;;;;;;;;;;;;;;1997746;28;19912;-69
2022/05/16 04:54:27;;;;;;;;;;;;;;;;;;1996607;28;19930;-69
2022/05/16 04:55:26;;;;;;;;;;;;;;;;;;1990493;28;19937;-70
2022/05/16 04:56:25;;;;;;;;;;;;;;;;;;1990591;28;20008;-70
2022/05/16 04:57:23;;;;;;;;;;;;;;;;;;1990446;28;19906;-70
2022/05/16 04:58:22;;;;;;;;;;;;;;;;;;1989929;28;20321;-70
2022/05/16 04:59:21;;;;;;;;;;;;;;;;;;1989973;28;19910;-69
2022/05/16 05:00:20;;;;;;;;;;;;;;;;;;1989897;28;19902;-69
2022/05/16 05:01:19;;;;;;;;;;;;;;;;;;1989666;28;19906;-69
2022/05/16 05:02:18;;;;;;;;;;;;;;;;;;1990007;28;19902;-69
2022/05/16 05:03:17;;;;;;;;;;;;;;;;;;1989813;28;19906;-70
2022/05/16 05:04:16;;;;;;;;;;;;;;;;;;1989810;28;20416;-70
2022/05/16 05:05:15;;;;;;;;;;;;;;;;;;1989701;28;20235;-70
2022/05/16 05:06:14;;;;;;;;;;;;;;;;;;1989481;28;20311;-69
2022/05/16 05:07:13;;;;;;;;;;;;;;;;;;1989498;28;19992;-69
2022/05/16 05:08:11;;;;;;;;;;;;;;;;;;1989694;28;19906;-70
2022/05/16 05:09:10;;;;;;;;;;;;;;;;;;1989735;28;19931;-69
2022/05/16 05:15:20;;;;;;;;;;;;;;;;;;1989579;28;20394;-68
2022/05/16 05:16:18;;;;;;;;;;;;;;;;;;1989342;28;19910;-70
2022/05/16 05:17:17;;;;;;;;;;;;;;;;;;1989521;28;19953;-70
2022/05/16 05:18:16;;;;;;;;;;;;;;;;;;1989532;28;20001;-70
2022/05/16 05:19:15;;;;;;;;;;;;;;;;;;1989319;28;19934;-70
2022/05/16 05:20:14;;;;;;;;;;;;;;;;;;1989420;28;20005;-70
2022/05/16 05:21:13;;;;;;;;;;;;;;;;;;1989518;28;19908;-70
2022/05/16 05:22:13;;;;;;;;;;;;;;;;;;1989522;28;20266;-70
2022/05/16 05:23:11;;;;;;;;;;;;;;;;;;1989328;28;19906;-70
2022/05/16 05:24:10;;;;;;;;;;;;;;;;;;1989301;28;19913;-71
2022/05/16 05:25:09;;;;;;;;;;;;;;;;;;1989476;28;19993;-70
2022/05/16 05:26:08;;;;;;;;;;;;;;;;;;1989263;28;19909;-70
2022/05/16 05:27:07;;;;;;;;;;;;;;;;;;1989209;28;19902;-70
2022/05/16 05:28:06;;;;;;;;;;;;;;;;;;1989385;28;20350;-69
2022/05/16 05:29:05;;;;;;;;;;;;;;;;;;1989294;28;19956;-70
2022/05/16 05:30:04;;;;;;;;;;;;;;;;;;1989332;28;20109;-70
2022/05/16 05:31:03;;;;;;;;;;;;;;;;;;1988552;28;19906;-70
2022/05/16 05:32:03;;;;;;;;;;;;;;;;;;1988800;28;19914;-70
2022/05/16 05:33:01;;;;;;;;;;;;;;;;;;1989192;28;19913;-70
2022/05/16 05:34:01;;;;;;;;;;;;;;;;;;1989341;28;19957;-70
2022/05/16 05:35:00;;;;;;;;;;;;;;;;;;1989290;28;19913;-70
2022/05/16 05:36:00;;;;;;;;;;;;;;;;;;1989215;28;20380;-70
2022/05/16 05:37:00;;;;;;;;;;;;;;;;;;1989190;28;19914;-70
2022/05/16 05:37:59;;;;;;;;;;;;;;;;;;1989313;28;19913;-70
2022/05/16 05:38:58;;;;;;;;;;;;;;;;;;1989375;28;20336;-70
2022/05/16 05:40:00;;;;;;;;;;;;;;;;;;1989418;28;19906;-69
2022/05/16 05:40:59;;;;;;;;;;;;;;;;;;1989275;28;19960;-71
2022/05/16 05:41:57;;;;;;;;;;;;;;;;;;1989322;28;19921;-69
2022/05/16 05:42:58;;;;;;;;;;;;;;;;;;1990719;28;19906;-71
2022/05/16 05:43:56;;;;;;;;;;;;;;;;;;1990450;28;20266;-71
2022/05/16 05:44:55;;;;;;;;;;;;;;;;;;1989193;28;19906;-70
2022/05/16 05:45:54;;;;;;;;;;;;;;;;;;1989183;28;19913;-70
2022/05/16 05:46:53;;;;;;;;;;;;;;;;;;1988550;28;19906;-69
2022/05/16 05:47:52;;;;;;;;;;;;;;;;;;1988621;28;19959;-70
2022/05/16 05:48:51;;;;;;;;;;;;;;;;;;1989241;28;19906;-69
2022/05/16 05:49:50;;;;;;;;;;;;;;;;;;1989260;28;20342;-69
2022/05/16 05:50:48;;;;;;;;;;;;;;;;;;1989409;28;19996;-70
2022/05/16 05:51:47;;;;;;;;;;;;;;;;;;1989368;28;20321;-71
2022/05/16 05:52:46;;;;;;;;;;;;;;;;;;1989241;28;20433;-71
2022/05/16 05:53:45;;;;;;;;;;;;;;;;;;1988525;28;19958;-71
2022/05/16 05:54:44;;;;;;;;;;;;;;;;;;1988581;28;20374;-69
2022/05/16 05:55:43;;;;;;;;;;;;;;;;;;1989327;28;19906;-69
2022/05/16 05:56:42;;;;;;;;;;;;;;;;;;1989187;28;19910;-70
2022/05/16 05:57:40;;;;;;;;;;;;;;;;;;1989290;28;19922;-69
2022/05/16 05:58:39;;;;;;;;;;;;;;;;;;1989235;28;19906;-70
2022/05/16 05:59:38;;;;;;;;;;;;;;;;;;1989371;28;19914;-71
2022/05/16 06:00:37;;;;;;;;;;;;;;;;;;1989133;28;19906;-70
2022/05/16 06:01:36;;;;;;;;;;;;;;;;;;1989206;28;19988;-70
2022/05/16 06:02:37;;;;;;;;;;;;;;;;;;1989337;28;19915;-70
2022/05/16 06:03:36;;;;;;;;;;;;;;;;;;1989266;28;19906;-69
2022/05/16 06:04:35;;;;;;;;;;;;;;;;;;1989406;28;19906;-70
2022/05/16 06:05:34;;;;;;;;;;;;;;;;;;1989257;28;19906;-69
2022/05/16 06:06:33;;;;;;;;;;;;;;;;;;1989256;28;20333;-70
2022/05/16 06:07:32;;;;;;;;;;;;;;;;;;1989136;28;19932;-70
2022/05/16 06:08:31;;;;;;;;;;;;;;;;;;1989241;28;19906;-70
2022/05/16 06:09:30;;;;;;;;;;;;;;;;;;1989256;28;19995;-70
2022/05/16 06:10:28;;;;;;;;;;;;;;;;;;1989320;28;20013;-69
2022/05/16 06:11:28;;;;;;;;;;;;;;;;;;1989271;28;20290;-70
2022/05/16 06:12:27;;;;;;;;;;;;;;;;;;1989205;28;19906;-70
2022/05/16 06:13:25;;;;;;;;;;;;;;;;;;1988449;28;19906;-69
2022/05/16 06:14:24;;;;;;;;;;;;;;;;;;1988602;28;19953;-70
2022/05/16 06:15:23;;;;;;;;;;;;;;;;;;1989027;28;19907;-69
2022/05/16 06:16:22;;;;;;;;;;;;;;;;;;1989071;28;19921;-68
2022/05/16 06:17:21;;;;;;;;;;;;;;;;;;1989476;28;20342;-68
2022/05/16 06:18:20;;;;;;;;;;;;;;;;;;1990727;28;19909;-70
2022/05/16 06:19:18;;;;;;;;;;;;;;;;;;1990493;28;19913;-68
2022/05/16 06:20:17;;;;;;;;;;;;;;;;;;1990577;28;19906;-71
2022/05/16 06:21:16;;;;;;;;;;;;;;;;;;1990714;28;20369;-70
2022/05/16 06:22:15;;;;;;;;;;;;;;;;;;1990834;28;19912;-69
2022/05/16 06:23:14;;;;;;;;;;;;;;;;;;1990715;28;19980;-72
2022/05/16 06:25:34;;;;;;;;;;;;;;;;;;1990667;28;19922;-71
2022/05/16 06:26:33;;;;;;;;;;;;;;;;;;1990555;28;19910;-68
2022/05/16 06:27:32;;;;;;;;;;;;;;;;;;1990615;28;19910;-70
2022/05/16 06:28:34;;;;;;;;;;;;;;;;;;1990703;28;19902;-69
2022/05/16 06:29:33;;;;;;;;;;;;;;;;;;1990591;28;19975;-69
2022/05/16 06:30:32;;;;;;;;;;;;;;;;;;1989842;28;20441;-70
2022/05/16 06:31:31;;;;;;;;;;;;;;;;;;1990154;28;19920;-70
2022/05/16 06:32:30;;;;;;;;;;;;;;;;;;1990502;28;19902;-70
2022/05/16 06:33:29;;;;;;;;;;;;;;;;;;1990712;28;20322;-69
2022/05/16 06:34:27;;;;;;;;;;;;;;;;;;1989888;28;19902;-69
2022/05/16 06:35:26;;;;;;;;;;;;;;;;;;1990162;28;19906;-69
2022/05/16 06:36:25;;;;;;;;;;;;;;;;;;1989463;28;19961;-69
2022/05/16 06:37:24;;;;;;;;;;;;;;;;;;1990033;28;19906;-69
2022/05/16 06:38:23;;;;;;;;;;;;;;;;;;1990422;28;20421;-71
2022/05/16 06:39:22;;;;;;;;;;;;;;;;;;1990426;28;20012;-70
2022/05/16 06:40:21;;;;;;;;;;;;;;;;;;1990733;28;20350;-70
2022/05/16 06:41:20;;;;;;;;;;;;;;;;;;1990615;28;19996;-69
2022/05/16 06:42:19;;;;;;;;;;;;;;;;;;1990877;28;20345;-70
2022/05/16 06:43:17;;;;;;;;;;;;;;;;;;1990755;28;19910;-69
2022/05/16 06:44:19;;;;;;;;;;;;;;;;;;1990866;28;19902;-69
2022/05/16 06:45:17;;;;;;;;;;;;;;;;;;1990882;28;19993;-69
2022/05/16 06:46:16;;;;;;;;;;;;;;;;;;1990924;28;19902;-70
2022/05/16 06:47:15;;;;;;;;;;;;;;;;;;1990736;28;19910;-69
2022/05/16 06:48:14;;;;;;;;;;;;;;;;;;1990799;28;20262;-70
2022/05/16 06:49:13;;;;;;;;;;;;;;;;;;1991084;28;19906;-70
2022/05/16 06:50:12;;;;;;;;;;;;;;;;;;1991056;28;19925;-70
2022/05/16 06:51:11;;;;;;;;;;;;;;;;;;1990787;28;19914;-70
2022/05/16 06:52:10;;;;;;;;;;;;;;;;;;1990982;28;19902;-70
2022/05/16 06:53:09;;;;;;;;;;;;;;;;;;1990930;28;19913;-69
2022/05/16 06:54:08;;;;;;;;;;;;;;;;;;1990882;28;19909;-69
2022/05/16 06:55:06;;;;;;;;;;;;;;;;;;1990712;28;19910;-70
2022/05/16 06:56:05;;;;;;;;;;;;;;;;;;1990730;28;19909;-70
2022/05/16 06:57:04;;;;;;;;;;;;;;;;;;1990814;28;19906;-70
2022/05/16 06:58:03;;;;;;;;;;;;;;;;;;1990965;28;19906;-70
2022/05/16 06:59:02;;;;;;;;;;;;;;;;;;1990997;28;20234;-70
2022/05/16 07:00:01;;;;;;;;;;;;;;;;;;1990785;28;19906;-70
2022/05/16 07:01:00;;;;;;;;;;;;;;;;;;1990781;28;19960;-70
2022/05/16 07:01:59;;;;;;;;;;;;;;;;;;1990885;28;19957;-70